Time;durP1;ratioP1;P1;durP2;ratioP2;P2;SDS_P1;SDS_P2;PMS_P1;PMS_P2;Temp;Humidity;BMP_temperature;BMP_pressure;BME280_temperature;BME280_humidity;BME280_pressure;Samples;Min_cycle;Max_cycle;Signal;HPM_P1;HPM_P2
2022/08/03 00:01:22;;;;;;;;;7.50;7.50;;;;;26.45;36.32;99072.13;5053884;28;45428;-58
2022/08/03 00:03:48;;;;;;;;;3.00;2.00;;;;;26.45;36.67;99069.41;5044628;28;45487;-58
2022/08/03 00:06:13;;;;;;;;;1.25;1.25;;;;;26.47;36.10;99072.81;5050689;28;46430;-58
2022/08/03 00:08:39;;;;;;;;;1.50;1.50;;;;;26.51;36.75;99065.19;5050818;28;45375;-58
2022/08/03 00:11:05;;;;;;;;;6.00;2.75;;;;;26.50;36.78;99072.44;5054484;28;45783;-58
2022/08/03 00:13:32;;;;;;;;;2.75;2.75;;;;;26.49;36.69;99068.06;5053497;28;45381;-59
2022/08/03 00:15:57;;;;;;;;;1.00;1.00;;;;;26.47;36.78;99077.38;5053318;28;46574;-58
2022/08/03 00:18:23;;;;;;;;;3.50;2.00;;;;;26.44;36.95;99078.53;5047070;28;45413;-58
2022/08/03 00:20:49;;;;;;;;;2.00;2.00;;;;;26.44;36.61;99075.81;5053735;28;45488;-59
2022/08/03 00:23:15;;;;;;;;;2.00;2.00;;;;;26.43;37.13;99079.53;5052485;28;45459;-58
2022/08/03 00:25:40;;;;;;;;;2.50;2.50;;;;;26.43;37.17;99076.84;5053671;28;46507;-58
2022/08/03 00:28:06;;;;;;;;;3.75;3.75;;;;;26.43;37.19;99079.53;5049255;28;45305;-59
2022/08/03 00:30:32;;;;;;;;;2.25;2.00;;;;;26.44;36.96;99072.28;5054338;28;45356;-59
2022/08/03 00:32:58;;;;;;;;;3.75;2.50;;;;;26.44;37.19;99072.28;5047628;27;45282;-59
2022/08/03 00:35:24;;;;;;;;;2.25;2.00;;;;;26.45;37.03;99068.56;5054903;28;45512;-59
2022/08/03 00:37:50;;;;;;;;;2.00;2.00;;;;;26.44;37.39;99072.28;5050067;28;45446;-59
2022/08/03 00:40:17;;;;;;;;;3.00;3.00;;;;;26.43;37.27;99071.44;5056233;28;45377;-59
2022/08/03 00:42:52;;;;;;;;;3.00;3.00;;;;;26.42;37.32;99069.72;5052005;28;45524;-58
2022/08/03 00:45:20;;;;;;;;;6.75;6.25;;;;;26.40;37.24;99066.34;5055061;28;46542;-59
2022/08/03 00:47:46;;;;;;;;;2.00;2.00;;;;;26.37;37.54;99069.38;5050569;28;45405;-59
2022/08/03 00:50:11;;;;;;;;;1.00;1.00;;;;;26.33;37.50;99071.53;5054415;28;45353;-59
2022/08/03 00:52:38;;;;;;;;;2.50;2.50;;;;;26.32;37.37;99061.75;5047589;28;45355;-58
2022/08/03 00:55:03;;;;;;;;;2.25;2.25;;;;;26.29;37.32;99056.69;5051838;28;45411;-58
2022/08/03 00:57:29;;;;;;;;;3.00;1.75;;;;;26.29;37.72;99059.38;5044925;28;45498;-58
2022/08/03 00:59:55;;;;;;;;;4.00;2.00;;;;;26.31;37.78;99056.53;5051699;28;45436;-58
2022/08/03 01:02:20;;;;;;;;;3.00;3.00;;;;;26.32;37.49;99059.03;5045595;28;45481;-57
2022/08/03 01:04:45;;;;;;;;;4.75;3.00;;;;;26.33;37.83;99063.44;5055274;28;46157;-58
2022/08/03 01:07:14;;;;;;;;;1.75;1.75;;;;;26.35;37.72;99060.56;5046898;28;45494;-58
2022/08/03 01:09:59;;;;;;;;;2.75;2.00;;;;;26.39;37.83;99061.94;5053260;28;45471;-58
2022/08/03 01:12:36;;;;;;;;;2.25;2.00;;;;;26.37;37.92;99054.00;5044651;28;45500;-59
2022/08/03 01:15:35;;;;;;;;;3.00;3.00;;;;;26.38;37.94;99054.84;5055481;28;46329;-58
2022/08/03 01:18:30;;;;;;;;;1.80;1.80;;;;;26.33;37.35;99062.59;5050700;28;45533;-58
2022/08/03 01:21:01;;;;;;;;;2.00;2.00;;;;;26.29;37.81;99053.13;5052304;28;45380;-58
2022/08/03 01:23:33;;;;;;;;;3.75;3.00;;;;;26.25;37.75;99057.13;5051617;28;45523;-58
2022/08/03 01:26:35;;;;;;;;;1.80;1.80;;;;;26.18;37.98;99056.06;5052046;28;45435;-59
2022/08/03 01:29:13;;;;;;;;;2.20;2.20;;;;;26.08;38.25;99057.06;5045511;28;45378;-59
2022/08/03 01:31:43;;;;;;;;;1.00;1.00;;;;;26.01;38.39;99053.28;5048920;28;45562;-59
2022/08/03 01:34:12;;;;;;;;;2.00;2.00;;;;;25.94;38.46;99049.56;5049878;28;45524;-59
2022/08/03 01:36:50;;;;;;;;;4.00;2.00;;;;;25.89;38.47;99051.03;5050565;28;45435;-57
2022/08/03 01:39:18;;;;;;;;;2.80;2.80;;;;;25.87;38.51;99055.75;5054246;28;45506;-57
2022/08/03 01:41:49;;;;;;;;;2.50;2.50;;;;;25.86;38.59;99065.69;5050791;28;45366;-57
2022/08/03 01:44:16;;;;;;;;;3.75;2.00;;;;;25.86;38.88;99060.31;5055261;28;45388;-57
2022/08/03 01:46:43;;;;;;;;;1.50;1.50;;;;;25.88;38.71;99060.16;5050364;28;45431;-58
2022/08/03 01:49:12;;;;;;;;;3.20;2.00;;;;;25.86;39.30;99065.69;5054070;28;45441;-58
2022/08/03 01:51:40;;;;;;;;;3.00;3.00;;;;;25.84;38.75;99070.41;5048636;28;45659;-58
2022/08/03 01:54:08;;;;;;;;;2.25;1.25;;;;;25.79;39.51;99061.97;5050012;28;45309;-57
2022/08/03 01:56:36;;;;;;;;;3.00;3.00;;;;;25.78;39.57;99060.28;5051167;28;46238;-59
2022/08/03 01:59:05;;;;;;;;;2.60;2.60;;;;;25.77;40.13;99063.13;5041059;28;45492;-57
2022/08/03 02:01:33;;;;;;;;;5.00;3.50;;;;;25.74;39.81;99061.59;5047157;28;45260;-58
2022/08/03 02:04:00;;;;;;;;;1.75;1.75;;;;;25.70;40.10;99062.91;5052432;28;45389;-58
2022/08/03 02:06:28;;;;;;;;;3.00;3.00;;;;;25.68;39.99;99065.75;5050072;28;45564;-58
2022/08/03 02:08:54;;;;;;;;;2.80;2.80;;;;;25.65;40.05;99063.38;5048177;28;45396;-58
2022/08/03 02:11:20;;;;;;;;;3.25;3.25;;;;;25.63;39.77;99061.88;5049429;28;45463;-58
2022/08/03 02:13:47;;;;;;;;;3.00;3.00;;;;;25.62;40.13;99065.56;5047142;28;45354;-58
2022/08/03 02:16:13;;;;;;;;;3.00;3.00;;;;;25.60;40.27;99064.84;5049725;28;45666;-58
2022/08/03 02:18:41;;;;;;;;;3.00;3.00;;;;;25.62;40.02;99065.56;5052604;28;45214;-58
2022/08/03 02:21:09;;;;;;;;;3.00;2.25;;;;;25.62;40.02;99062.88;5050220;28;45541;-60
2022/08/03 02:23:35;;;;;;;;;1.75;1.75;;;;;25.60;40.08;99067.53;5048585;28;45567;-58
2022/08/03 02:26:03;;;;;;;;;2.50;2.50;;;;;25.58;40.28;99067.69;5050745;28;46460;-58
2022/08/03 02:28:34;;;;;;;;;4.00;3.00;;;;;25.54;40.36;99060.91;5047326;28;45333;-59
2022/08/03 02:31:03;;;;;;;;;3.25;3.00;;;;;25.51;40.28;99065.78;5051460;28;45425;-58
2022/08/03 02:33:37;;;;;;;;;3.25;3.25;;;;;25.48;40.41;99066.94;5048776;28;45580;-57
2022/08/03 02:36:05;;;;;;;;;4.50;4.00;;;;;25.48;40.56;99063.38;5050034;28;45425;-58
2022/08/03 02:38:35;;;;;;;;;2.80;2.80;;;;;25.47;40.66;99062.53;5043692;28;45425;-59
2022/08/03 02:41:06;;;;;;;;;3.25;3.25;;;;;25.47;40.88;99065.22;5051429;28;45476;-59
2022/08/03 02:43:34;;;;;;;;;4.75;4.00;;;;;25.48;40.55;99063.38;5049781;28;45398;-59
2022/08/03 02:46:00;;;;;;;;;2.75;2.75;;;;;25.45;41.70;99066.41;5050190;28;45443;-59
2022/08/03 02:48:31;;;;;;;;;3.00;3.00;;;;;25.36;41.25;99060.94;5048662;28;45366;-59
2022/08/03 02:50:59;;;;;;;;;2.00;2.00;;;;;25.30;41.33;99058.03;5052163;28;45455;-58
2022/08/03 02:53:26;;;;;;;;;2.75;2.75;;;;;25.25;41.13;99061.19;5050617;28;45523;-59
2022/08/03 02:55:54;;;;;;;;;4.75;4.00;;;;;25.22;41.59;99066.06;5050864;28;45475;-59
2022/08/03 02:58:22;;;;;;;;;3.40;3.00;;;;;25.16;42.63;99061.25;5047972;28;45368;-59
2022/08/03 03:00:50;;;;;;;;;3.50;2.25;;;;;25.10;42.14;99067.31;5049856;28;45407;-59
2022/08/03 03:03:16;;;;;;;;;6.50;4.25;;;;;25.03;42.28;99053.56;5047109;28;45588;-59
2022/08/03 03:05:43;;;;;;;;;4.00;4.00;;;;;25.00;42.10;99056.56;5050505;28;45426;-59
2022/08/03 03:08:11;;;;;;;;;3.20;3.20;;;;;24.96;42.43;99056.06;5050919;28;45439;-59
2022/08/03 03:10:38;;;;;;;;;4.50;2.25;;;;;24.94;43.80;99059.91;5055806;28;45542;-59
2022/08/03 03:13:04;;;;;;;;;3.75;2.00;;;;;24.89;44.12;99059.47;5049258;28;45475;-58
2022/08/03 03:15:30;;;;;;;;;2.60;1.80;;;;;24.81;43.63;99062.06;5056195;28;46357;-59
2022/08/03 03:17:56;;;;;;;;;4.25;2.50;;;;;24.77;43.91;99061.56;5046148;28;45802;-59
2022/08/03 03:20:24;;;;;;;;;3.00;3.00;;;;;24.76;44.04;99064.41;5055990;28;45401;-59
2022/08/03 03:22:50;;;;;;;;;4.00;4.00;;;;;24.72;43.84;99063.00;5052604;28;45424;-59
2022/08/03 03:25:17;;;;;;;;;3.00;3.00;;;;;24.63;43.96;99064.78;5054592;28;45515;-59
2022/08/03 03:27:43;;;;;;;;;3.00;3.00;;;;;24.56;43.97;99066.38;5050330;28;45554;-58
2022/08/03 03:30:09;;;;;;;;;3.00;3.00;;;;;24.49;44.44;99067.97;5055348;28;45321;-59
2022/08/03 03:32:35;;;;;;;;;2.25;2.25;;;;;24.40;44.56;99063.50;5049827;28;45451;-58
2022/08/03 03:35:01;;;;;;;;;2.00;2.00;;;;;24.37;44.83;99066.47;5052597;28;46534;-58
2022/08/03 03:37:27;;;;;;;;;2.00;2.00;;;;;24.37;44.50;99067.34;5053731;28;45320;-58
2022/08/03 03:39:53;;;;;;;;;5.00;5.00;;;;;24.35;44.69;99063.94;5056136;28;45357;-58
2022/08/03 03:42:19;;;;;;;;;2.50;2.00;;;;;24.31;44.59;99062.53;5051786;28;45491;-59
2022/08/03 03:44:44;;;;;;;;;4.00;4.00;;;;;24.30;44.62;99068.91;5056425;28;45612;-59
2022/08/03 03:47:10;;;;;;;;;4.00;2.25;;;;;24.28;44.61;99069.09;5050279;28;45432;-58
2022/08/03 03:49:36;;;;;;;;;5.00;5.00;;;;;24.25;44.01;99063.16;5057346;28;45328;-58
2022/08/03 03:52:01;;;;;;;;;2.00;2.00;;;;;24.24;43.62;99070.38;5049934;28;45546;-58
2022/08/03 03:54:39;;;;;;;;;4.00;4.00;;;;;24.28;44.13;99068.25;5056078;28;46266;-57
2022/08/03 03:57:04;;;;;;;;;7.80;5.60;;;;;24.31;43.99;99067.91;5049613;28;45483;-60
2022/08/03 03:59:29;;;;;;;;;2.75;2.50;;;;;24.32;44.17;99069.63;5055296;28;45400;-58
2022/08/03 04:01:55;;;;;;;;;4.25;4.25;;;;;24.28;45.66;99070.94;5046471;28;45445;-59
2022/08/03 04:12:35;;;;;;;;;6.00;6.00;;;;;24.06;45.53;99073.97;5044932;28;45454;-58
2022/08/03 04:15:03;;;;;;;;;4.75;4.75;;;;;24.00;46.21;99067.31;5056203;28;46131;-58
2022/08/03 04:17:30;;;;;;;;;4.20;4.20;;;;;23.89;45.75;99073.75;5052335;28;45419;-59
2022/08/03 04:19:57;;;;;;;;;5.25;5.00;;;;;23.84;45.54;99067.94;5053789;28;45478;-59
2022/08/03 04:22:28;;;;;;;;;4.25;3.00;;;;;23.79;45.06;99078.34;5051699;28;45395;-59
2022/08/03 04:25:07;;;;;;;;;2.50;2.50;;;;;23.79;45.47;99085.56;5050195;28;45590;-58
2022/08/03 04:27:40;;;;;;;;;3.60;3.20;;;;;23.79;45.09;99089.09;5049608;28;45431;-58
2022/08/03 04:30:08;;;;;;;;;7.00;4.50;;;;;23.80;45.30;99081.84;5051319;28;45407;-58
2022/08/03 04:32:35;;;;;;;;;7.00;5.75;;;;;23.80;45.89;99088.06;5047697;28;45610;-59
2022/08/03 04:35:01;;;;;;;;;4.25;4.25;;;;;23.78;45.17;99095.47;5055432;28;46414;-59
2022/08/03 04:37:49;;;;;;;;;5.00;5.00;;;;;23.76;45.15;99102.84;5051419;28;45635;-59
2022/08/03 04:40:20;;;;;;;;;4.00;4.00;;;;;23.77;45.48;99103.69;5050372;28;45520;-58
2022/08/03 04:42:47;;;;;;;;;10.75;10.00;;;;;23.75;45.62;99105.69;5053934;28;45341;-59
2022/08/03 04:45:14;;;;;;;;;6.00;6.00;;;;;23.76;45.73;99105.53;5054941;28;46152;-58
2022/08/03 04:47:41;;;;;;;;;7.50;6.00;;;;;23.74;45.68;99102.13;5050691;28;45474;-58
2022/08/03 04:50:07;;;;;;;;;7.75;6.25;;;;;23.74;45.69;99104.84;5046413;28;45472;-59
2022/08/03 04:52:33;;;;;;;;;5.75;5.75;;;;;23.74;45.54;99107.53;5045012;28;45422;-58
2022/08/03 04:54:59;;;;;;;;;4.25;3.75;;;;;23.76;45.64;99110.06;5051944;28;46601;-58
2022/08/03 04:57:24;;;;;;;;;6.25;6.25;;;;;23.74;45.82;99112.06;5046948;28;45418;-58
2022/08/03 04:59:53;;;;;;;;;6.00;6.00;;;;;23.72;45.59;99120.28;5054683;28;45497;-58
2022/08/03 05:02:19;;;;;;;;;5.00;4.00;;;;;23.70;45.50;99121.41;5053329;28;45471;-58
2022/08/03 05:04:45;;;;;;;;;5.00;5.00;;;;;23.74;45.58;99117.44;5046017;28;45490;-58
2022/08/03 05:07:15;;;;;;;;;6.00;5.00;;;;;23.80;45.68;99120.38;5052013;28;45566;-58
2022/08/03 05:09:40;;;;;;;;;6.50;6.50;;;;;23.84;45.44;99126.34;5053344;28;45437;-58
2022/08/03 05:12:06;;;;;;;;;6.00;5.00;;;;;23.85;45.68;99126.19;5044558;28;45586;-58
2022/08/03 05:14:38;;;;;;;;;5.50;5.50;;;;;23.86;45.88;99125.19;5052467;28;46317;-58
2022/08/03 05:17:07;;;;;;;;;6.25;6.25;;;;;23.87;46.31;99128.75;5048780;28;45499;-58
2022/08/03 05:19:33;;;;;;;;;5.00;5.00;;;;;23.90;46.73;99134.69;5050485;28;45428;-58
2022/08/03 05:21:59;;;;;;;;;4.50;4.50;;;;;23.96;46.22;99135.97;5049086;28;45567;-58
2022/08/03 05:24:24;;;;;;;;;4.50;4.50;;;;;24.08;45.84;99142.88;5049577;28;45519;-58
2022/08/03 05:26:50;;;;;;;;;6.00;6.00;;;;;24.17;45.70;99141.97;5048410;28;45369;-58
2022/08/03 05:29:15;;;;;;;;;5.75;4.75;;;;;24.25;45.50;99141.28;5049623;28;45663;-58
2022/08/03 05:31:40;;;;;;;;;6.75;6.75;;;;;24.33;45.52;99142.22;5044098;28;45444;-58
2022/08/03 05:34:06;;;;;;;;;7.00;6.25;;;;;24.37;45.20;99148.19;5049086;28;46592;-58
2022/08/03 05:36:31;;;;;;;;;5.50;5.50;;;;;24.37;44.65;99148.19;5038023;28;45594;-59
2022/08/03 05:38:57;;;;;;;;;5.00;5.00;;;;;24.38;44.92;99149.03;5043605;28;45682;-58
2022/08/03 05:41:23;;;;;;;;;6.00;6.00;;;;;24.40;44.31;99150.59;5042905;28;45521;-58
2022/08/03 05:43:49;;;;;;;;;5.00;5.00;;;;;24.44;44.49;99161.94;5044391;28;45520;-59
2022/08/03 05:46:15;;;;;;;;;6.00;6.00;;;;;24.48;44.15;99157.91;5044358;28;45526;-59
2022/08/03 05:48:41;;;;;;;;;5.25;5.25;;;;;24.51;44.50;99160.31;5050241;28;45526;-58
2022/08/03 05:51:09;;;;;;;;;5.25;4.75;;;;;24.53;43.80;99163.72;5047983;28;45571;-58
2022/08/03 05:53:35;;;;;;;;;5.25;5.25;;;;;24.56;44.40;99169.66;5049649;28;45709;-58
2022/08/03 05:56:01;;;;;;;;;8.00;6.25;;;;;24.58;44.82;99164.97;5047567;28;45487;-58
2022/08/03 05:58:26;;;;;;;;;4.00;4.00;;;;;24.60;43.96;99165.69;5049020;28;45542;-59
2022/08/03 06:00:52;;;;;;;;;5.25;5.25;;;;;24.63;44.21;99168.06;5046665;28;45627;-59
2022/08/03 06:03:18;;;;;;;;;5.00;5.00;;;;;24.63;44.36;99168.06;5045541;28;45544;-58
2022/08/03 06:05:44;;;;;;;;;6.80;6.00;;;;;24.61;44.31;99171.91;5042549;28;45555;-59
2022/08/03 06:08:09;;;;;;;;;5.00;5.00;;;;;24.57;44.43;99170.50;5045956;28;45487;-58
2022/08/03 06:10:35;;;;;;;;;5.00;5.00;;;;;24.56;44.41;99172.34;5044312;28;45590;-59
2022/08/03 06:13:00;;;;;;;;;5.00;5.00;;;;;24.59;44.50;99166.69;5045199;28;46733;-58
2022/08/03 06:15:26;;;;;;;;;5.00;5.00;;;;;24.62;44.73;99168.22;5045025;28;45539;-58
2022/08/03 06:17:51;;;;;;;;;7.00;6.00;;;;;24.64;44.20;99168.91;5045440;28;45458;-59
2022/08/03 06:20:18;;;;;;;;;12.00;9.00;;;;;24.65;44.37;99173.28;5045414;28;45473;-59
2022/08/03 06:22:44;;;;;;;;;7.00;6.00;;;;;24.64;45.06;99171.59;5048716;28;46470;-59
2022/08/03 06:25:10;;;;;;;;;8.75;7.25;;;;;24.64;44.78;99171.59;5043556;28;45505;-59
2022/08/03 06:27:38;;;;;;;;;10.25;7.00;;;;;24.67;44.98;99174.00;5047948;28;45406;-59
2022/08/03 06:30:06;;;;;;;;;9.00;8.25;;;;;24.70;45.32;99174.56;5046411;27;45565;-59
2022/08/03 06:32:32;;;;;;;;;8.00;7.50;;;;;24.74;45.13;99172.41;5045864;28;46167;-60
2022/08/03 06:34:58;;;;;;;;;7.00;6.60;;;;;24.75;45.19;99166.03;5044945;28;45436;-59
2022/08/03 06:37:23;;;;;;;;;5.25;5.00;;;;;24.77;45.34;99169.44;5047785;28;45494;-60
2022/08/03 06:39:49;;;;;;;;;6.00;6.00;;;;;24.82;45.02;99166.25;5054690;28;45425;-59
2022/08/03 06:42:14;;;;;;;;;7.00;7.00;;;;;24.86;44.80;99173.91;5049374;28;45550;-59
2022/08/03 06:44:39;;;;;;;;;9.00;6.25;;;;;24.91;45.56;99177.00;5054067;28;45369;-59
2022/08/03 06:47:05;;;;;;;;;10.25;7.25;;;;;24.94;45.38;99175.88;5036699;28;45306;-60
2022/08/03 06:49:30;;;;;;;;;6.00;5.25;;;;;24.99;45.41;99170.88;5035707;28;45361;-60
2022/08/03 06:51:56;;;;;;;;;6.25;6.00;;;;;25.02;44.65;99171.41;5035879;28;45623;-59
2022/08/03 06:54:23;;;;;;;;;7.00;7.00;;;;;25.07;44.44;99167.44;5038915;28;45404;-60
2022/08/03 06:56:48;;;;;;;;;6.75;6.75;;;;;25.10;44.87;99178.78;5044119;28;45387;-60
2022/08/03 06:59:14;;;;;;;;;7.75;6.00;;;;;25.14;44.77;99176.59;5036583;28;45374;-59
2022/08/03 07:01:40;;;;;;;;;6.00;6.00;;;;;25.20;44.62;99174.16;5036315;28;46580;-59
2022/08/03 07:04:05;;;;;;;;;6.25;6.25;;;;;25.24;44.50;99178.25;5035503;28;45399;-60
2022/08/03 07:06:30;;;;;;;;;7.50;7.50;;;;;25.30;44.09;99174.09;5036721;28;45904;-59
2022/08/03 07:08:56;;;;;;;;;6.00;5.75;;;;;25.33;44.50;99174.59;5036688;28;45409;-60
2022/08/03 07:11:22;;;;;;;;;7.00;7.00;;;;;25.39;44.11;99176.69;5036309;28;45355;-59
2022/08/03 07:13:47;;;;;;;;;6.50;5.75;;;;;25.47;44.24;99175.09;5036677;28;45366;-59
2022/08/03 07:16:13;;;;;;;;;8.25;6.50;;;;;25.54;43.98;99171.59;5035629;28;45366;-59
2022/08/03 07:18:39;;;;;;;;;7.25;6.00;;;;;25.61;43.89;99172.69;5036431;28;45453;-60
2022/08/03 07:21:04;;;;;;;;;8.75;6.75;;;;;25.67;44.04;99176.63;5035618;28;46424;-60
2022/08/03 07:23:30;;;;;;;;;6.50;6.25;;;;;25.75;43.56;99182.13;5036188;28;45364;-59
2022/08/03 07:25:55;;;;;;;;;7.00;6.00;;;;;25.82;43.76;99183.16;5036611;28;45308;-60
2022/08/03 07:28:21;;;;;;;;;7.00;7.00;;;;;25.90;43.51;99182.41;5037086;28;45479;-59
2022/08/03 07:30:46;;;;;;;;;7.25;6.50;;;;;25.96;43.22;99187.19;5036462;28;46476;-60
2022/08/03 07:33:12;;;;;;;;;5.50;5.50;;;;;26.02;43.02;99178.44;5036535;28;45506;-60
2022/08/03 07:35:37;;;;;;;;;7.75;7.75;;;;;26.10;42.93;99183.91;5036269;28;45527;-60
2022/08/03 07:38:04;;;;;;;;;7.25;7.00;;;;;26.16;42.76;99180.53;5035854;28;45414;-60
2022/08/03 07:40:29;;;;;;;;;8.00;8.00;;;;;26.23;42.91;99183.47;5047912;28;45483;-59
2022/08/03 07:42:55;;;;;;;;;6.00;4.75;;;;;26.28;42.78;99168.47;5056271;28;45428;-60
2022/08/03 07:45:22;;;;;;;;;4.75;4.75;;;;;26.36;42.26;99173.94;5056250;28;45487;-60
2022/08/03 07:47:47;;;;;;;;;5.00;5.00;;;;;26.42;42.37;99167.06;5055526;28;45511;-59
2022/08/03 07:50:12;;;;;;;;;6.50;4.75;;;;;26.50;42.26;99160.84;5054378;28;47810;-59
2022/08/03 07:52:47;;;;;;;;;5.50;5.50;;;;;26.57;41.76;99160.03;5056193;28;45360;-60
2022/08/03 07:55:13;;;;;;;;;7.00;5.50;;;;;26.63;41.87;99162.09;5055861;28;45466;-60
2022/08/03 07:57:38;;;;;;;;;9.00;8.25;;;;;26.68;41.74;99161.59;5036250;28;45336;-60
2022/08/03 08:00:09;;;;;;;;;7.00;7.00;;;;;26.75;41.59;99163.50;5035953;28;45904;-59
2022/08/03 08:02:35;;;;;;;;;6.60;6.60;;;;;26.81;41.25;99158.47;5036264;28;45409;-60
2022/08/03 08:05:00;;;;;;;;;3.00;3.00;;;;;26.86;41.37;99158.78;5035541;28;45992;-60
2022/08/03 08:07:25;;;;;;;;;5.00;5.00;;;;;26.91;41.30;99145.63;5036400;28;45444;-60
2022/08/03 08:09:51;;;;;;;;;6.50;6.00;;;;;26.97;40.83;99150.41;5036245;28;46208;-59
2022/08/03 08:12:17;;;;;;;;;7.50;5.75;;;;;27.02;40.77;99154.31;5034699;28;45750;-59
2022/08/03 08:14:45;;;;;;;;;5.75;5.75;;;;;27.07;40.57;99148.41;5034505;28;45420;-59
2022/08/03 08:17:11;;;;;;;;;7.00;6.00;;;;;27.11;40.48;99152.47;5042648;28;45734;-60
2022/08/03 08:19:36;;;;;;;;;2.00;2.00;;;;;27.18;40.61;99155.34;5052090;28;46402;-60
2022/08/03 08:22:01;;;;;;;;;6.75;6.00;;;;;27.25;39.92;99150.97;5039084;28;45381;-60
2022/08/03 08:24:29;;;;;;;;;4.75;4.75;;;;;27.29;39.62;99147.78;5035823;28;45476;-59
2022/08/03 08:26:55;;;;;;;;;6.25;6.25;;;;;27.34;39.69;99141.84;5045682;28;45579;-59
2022/08/03 08:29:22;;;;;;;;;11.00;8.50;;;;;27.39;39.54;99139.47;5040834;28;45410;-59
2022/08/03 08:31:49;;;;;;;;;5.60;4.60;;;;;27.45;39.62;99139.66;5043064;28;45495;-59
2022/08/03 08:34:15;;;;;;;;;6.25;5.25;;;;;27.52;39.53;99138.97;5055517;28;45370;-59
2022/08/03 08:36:40;;;;;;;;;6.25;5.25;;;;;27.57;39.22;99140.22;5055175;28;45333;-60
2022/08/03 08:39:06;;;;;;;;;5.25;5.25;;;;;27.63;38.71;99136.84;5038381;28;46395;-59
2022/08/03 08:41:33;;;;;;;;;6.00;6.00;;;;;27.69;38.27;99140.69;5053602;28;45622;-60
2022/08/03 08:43:59;;;;;;;;;7.25;5.75;;;;;27.73;38.40;99133.94;5054979;28;45507;-59
2022/08/03 08:46:25;;;;;;;;;6.75;5.25;;;;;27.77;38.30;99136.16;5053604;28;45419;-60
2022/08/03 08:48:52;;;;;;;;;6.00;6.00;;;;;27.83;37.93;99128.31;5044973;28;46252;-60
2022/08/03 08:51:20;;;;;;;;;5.00;5.00;;;;;27.88;38.27;99117.81;5035078;28;45326;-59
2022/08/03 08:53:50;;;;;;;;;4.25;4.25;;;;;27.93;37.89;99116.31;5035590;28;45406;-60
2022/08/03 08:56:17;;;;;;;;;3.50;3.25;;;;;28.01;37.38;99120.84;5039167;28;45421;-59
2022/08/03 08:58:50;;;;;;;;;6.00;5.00;;;;;28.07;37.66;99121.00;5037665;28;46595;-60
2022/08/03 09:01:26;;;;;;;;;4.40;4.40;;;;;28.14;37.83;99115.75;5040104;28;45346;-59
2022/08/03 09:03:53;;;;;;;;;7.75;7.75;;;;;28.23;37.07;99122.03;5035556;28;45392;-60
2022/08/03 09:06:18;;;;;;;;;5.75;5.75;;;;;28.29;36.98;99115.91;5033424;28;45354;-59
2022/08/03 09:08:44;;;;;;;;;6.00;6.00;;;;;28.36;36.91;99111.47;5043048;28;46090;-59
2022/08/03 09:11:09;;;;;;;;;5.50;5.50;;;;;28.45;36.79;99115.84;5050110;28;45548;-59
2022/08/03 09:13:35;;;;;;;;;3.25;3.00;;;;;28.54;36.89;99111.22;5044504;28;45346;-59
2022/08/03 09:16:20;;;;;;;;;8.00;6.00;;;;;28.64;36.22;99109.16;5046480;28;45513;-59
2022/08/03 09:18:51;;;;;;;;;4.00;4.00;;;;;28.72;36.16;99107.25;5037535;28;46205;-59
2022/08/03 09:21:27;;;;;;;;;4.60;4.60;;;;;28.80;36.37;99106.41;5041580;28;45444;-59
2022/08/03 09:23:56;;;;;;;;;4.75;4.75;;;;;28.89;36.50;99101.75;5041018;28;45400;-59
2022/08/03 09:26:21;;;;;;;;;6.75;5.75;;;;;28.97;35.81;99104.44;5048455;28;45346;-59
2022/08/03 09:28:57;;;;;;;;;6.50;6.50;;;;;29.05;36.12;99099.78;5054604;28;46593;-59
2022/08/03 09:31:35;;;;;;;;;4.40;4.40;;;;;29.13;35.50;99096.19;5054463;28;45492;-59
2022/08/03 09:34:11;;;;;;;;;4.00;3.00;;;;;29.22;35.35;99103.22;5054528;28;45441;-60
2022/08/03 09:36:57;;;;;;;;;2.75;2.75;;;;;29.30;34.98;99097.75;5053809;28;45479;-59
2022/08/03 09:39:25;;;;;;;;;6.00;4.75;;;;;29.40;35.43;99100.25;5053703;27;46238;-59
2022/08/03 09:42:04;;;;;;;;;6.00;4.80;;;;;29.49;34.88;99093.72;5054428;28;45423;-60
2022/08/03 09:44:40;;;;;;;;;5.00;5.00;;;;;29.56;35.13;99091.97;5054337;28;45495;-59
2022/08/03 09:47:06;;;;;;;;;6.75;6.00;;;;;29.62;35.19;99093.09;5051275;28;45487;-59
2022/08/03 09:49:32;;;;;;;;;5.50;5.00;;;;;29.67;34.27;99087.94;5041263;28;45531;-59
2022/08/03 09:52:02;;;;;;;;;3.50;3.50;;;;;29.74;34.38;99080.75;5066461;27;45396;-59
2022/08/03 09:54:31;;;;;;;;;6.00;6.00;;;;;29.80;33.71;99093.63;5037272;28;45315;-59
2022/08/03 09:56:57;;;;;;;;;8.00;6.00;;;;;29.84;34.38;99084.88;5041654;28;45463;-59
2022/08/03 09:59:24;;;;;;;;;6.25;4.00;;;;;29.90;34.36;99079.75;5042500;28;45337;-58
2022/08/03 10:01:49;;;;;;;;;7.50;7.00;;;;;29.99;34.84;99076.81;5039710;28;45411;-60
2022/08/03 10:04:18;;;;;;;;;9.75;7.50;;;;;30.08;34.87;99066.66;5047821;28;45386;-60
2022/08/03 10:06:45;;;;;;;;;6.50;6.00;;;;;30.22;34.26;99062.25;5048072;28;45505;-61
2022/08/03 10:09:13;;;;;;;;;9.00;7.50;;;;;30.35;34.23;99065.13;5033446;28;46430;-59
2022/08/03 10:11:40;;;;;;;;;7.80;6.60;;;;;30.46;32.99;99070.97;5034530;28;45487;-60
2022/08/03 10:14:07;;;;;;;;;5.50;5.50;;;;;30.51;33.04;99068.50;5041036;28;45441;-60
2022/08/03 10:16:35;;;;;;;;;7.50;7.00;;;;;30.55;32.89;99063.56;5043382;28;45375;-59
2022/08/03 10:19:05;;;;;;;;;7.50;6.75;;;;;30.59;32.97;99056.69;5033682;28;46036;-60
2022/08/03 10:21:36;;;;;;;;;5.00;5.00;;;;;30.66;33.07;99044.03;5033439;28;45497;-60
2022/08/03 10:24:04;;;;;;;;;7.00;7.00;;;;;30.77;33.57;99046.25;5033619;28;45318;-60
2022/08/03 10:26:34;;;;;;;;;6.00;6.00;;;;;30.88;33.17;99045.72;5033433;28;45875;-60
2022/08/03 10:29:03;;;;;;;;;7.50;6.75;;;;;30.98;32.45;99037.25;5032536;28;45464;-59
2022/08/03 10:31:37;;;;;;;;;6.00;5.80;;;;;31.10;32.32;99043.91;5033510;28;45361;-59
2022/08/03 10:34:05;;;;;;;;;6.25;5.50;;;;;31.19;31.87;99022.78;5033535;28;45383;-59
2022/08/03 10:36:33;;;;;;;;;3.75;3.50;;;;;31.29;31.86;99028.78;5032749;28;45404;-59
2022/08/03 10:39:01;;;;;;;;;4.00;4.00;;;;;31.41;31.98;99015.44;5032101;28;46325;-60
2022/08/03 10:41:31;;;;;;;;;4.00;4.00;;;;;31.51;30.83;99021.38;5053070;28;45415;-59
2022/08/03 10:44:03;;;;;;;;;3.50;3.50;;;;;31.62;30.90;99020.88;5053672;28;45412;-60
2022/08/03 10:46:28;;;;;;;;;4.25;3.75;;;;;31.72;29.53;99021.38;5051945;28;45499;-60
2022/08/03 10:48:55;;;;;;;;;6.50;5.25;;;;;31.82;29.56;99015.59;5053640;28;45332;-60
2022/08/03 10:51:22;;;;;;;;;4.20;3.60;;;;;31.90;29.38;99018.97;5052845;28;45356;-60
2022/08/03 10:53:47;;;;;;;;;5.00;5.00;;;;;32.02;29.50;99010.22;5053854;28;45619;-59
2022/08/03 10:59:45;;;;;;;;;5.00;4.75;;;;;32.20;29.35;99005.94;5011353;28;45668;-60
2022/08/03 11:02:12;;;;;;;;;4.00;3.75;;;;;32.30;29.24;99008.31;5053674;28;45465;-59
2022/08/03 11:04:39;;;;;;;;;6.00;5.00;;;;;32.34;28.60;99001.41;5048683;28;45534;-59
2022/08/03 11:07:17;;;;;;;;;4.50;4.00;;;;;32.39;28.92;98989.88;5042460;28;45432;-59
2022/08/03 11:09:46;;;;;;;;;4.00;4.00;;;;;32.44;28.27;98984.63;5045525;28;46591;-59
2022/08/03 11:12:22;;;;;;;;;6.20;6.00;;;;;32.52;28.83;98989.91;5041830;28;45362;-60
2022/08/03 11:14:48;;;;;;;;;6.75;5.00;;;;;32.57;28.35;98984.69;5046944;28;45393;-60
2022/08/03 11:17:13;;;;;;;;;4.00;4.00;;;;;32.63;27.95;98981.13;5033346;28;45452;-60
2022/08/03 11:19:57;;;;;;;;;4.75;4.00;;;;;32.72;28.43;98979.88;5031991;28;46230;-60
2022/08/03 11:22:23;;;;;;;;;5.00;5.00;;;;;32.79;28.06;98971.75;5045273;28;45363;-60
2022/08/03 11:24:56;;;;;;;;;3.75;3.50;;;;;32.88;27.51;98973.22;5036778;28;45388;-60
2022/08/03 11:27:34;;;;;;;;;5.75;2.50;;;;;32.94;27.37;98969.66;5036365;28;45389;-60
2022/08/03 11:30:14;;;;;;;;;3.75;2.75;;;;;33.00;27.29;98973.47;5036858;28;45519;-60
2022/08/03 11:32:40;;;;;;;;;4.25;3.50;;;;;33.07;27.38;98972.41;5047486;28;45411;-60
2022/08/03 11:35:11;;;;;;;;;5.00;5.00;;;;;33.10;27.07;98963.78;5043161;28;45480;-60
2022/08/03 11:37:56;;;;;;;;;4.00;4.00;;;;;33.15;27.08;98964.00;5043406;28;45360;-59
2022/08/03 11:40:44;;;;;;;;;3.00;3.00;;;;;33.21;26.65;98963.16;5046140;28;46415;-60
2022/08/03 11:43:22;;;;;;;;;4.25;4.25;;;;;33.23;27.15;98960.22;5056053;28;45407;-59
2022/08/03 11:46:16;;;;;;;;;3.25;3.25;;;;;33.25;26.74;98969.06;5056652;28;45392;-59
2022/08/03 11:48:47;;;;;;;;;4.25;3.00;;;;;33.29;26.72;98953.94;5054720;28;46022;-59
2022/08/03 11:51:23;;;;;;;;;3.25;3.25;;;;;33.31;26.07;98948.25;5055628;28;45434;-59